createdAt,value
2023-04-14T00:01:56.552Z,96229.06
2023-04-14T00:04:24.857Z,96228.94
2023-04-14T00:06:53.458Z,96225.59
2023-04-14T00:09:21.472Z,96219.16
2023-04-14T00:11:50.749Z,96213.22
2023-04-14T00:14:19.033Z,96211.75
2023-04-14T00:16:47.426Z,96210.41
2023-04-14T00:19:17.381Z,96213.56
2023-04-14T00:21:45.480Z,96216.94
2023-04-14T00:24:13.501Z,96224.84
2023-04-14T00:26:42.024Z,96224.25
2023-04-14T00:29:10.409Z,96220.28
2023-04-14T00:31:38.676Z,96224.84
2023-04-14T00:34:06.765Z,96223.88
2023-04-14T00:36:36.965Z,96219.78
2023-04-14T00:39:05.770Z,96223.44
2023-04-14T00:41:35.102Z,96227.41
2023-04-14T00:44:03.134Z,96224.00
2023-04-14T00:46:31.953Z,96221.66
2023-04-14T00:49:00.615Z,96221.78
2023-04-14T00:51:29.170Z,96218.22
2023-04-14T00:53:59.816Z,96211.16
2023-04-14T00:56:29.457Z,96201.03
2023-04-14T00:58:57.515Z,96207.75
2023-04-14T01:01:27.165Z,96208.69
2023-04-14T01:03:56.876Z,96206.91
2023-04-14T01:06:25.124Z,96200.78
2023-04-14T01:08:53.349Z,96201.75
2023-04-14T01:11:31.873Z,96194.22
2023-04-14T01:14:10.050Z,96201.16
2023-04-14T01:16:41.523Z,96205.41
2023-04-14T01:19:30.993Z,96214.13
2023-04-14T01:22:04.769Z,96213.28
2023-04-14T01:24:59.282Z,96218.59
2023-04-14T01:27:41.818Z,96214.38
2023-04-14T01:30:30.647Z,96222.00
2023-04-14T01:33:04.818Z,96224.34
2023-04-14T01:35:38.092Z,96225.28
2023-04-14T01:38:12.236Z,96219.16
2023-04-14T01:40:43.469Z,96212.22
2023-04-14T01:43:14.584Z,96214.13
2023-04-14T01:45:50.398Z,96212.72
2023-04-14T01:48:20.531Z,96210.00
2023-04-14T01:50:50.147Z,96198.25
2023-04-14T01:53:20.736Z,96199.41
2023-04-14T01:55:50.708Z,96197.50
2023-04-14T01:58:22.001Z,96184.56
2023-04-14T02:00:52.871Z,96188.47
2023-04-14T02:03:24.422Z,96190.44
2023-04-14T02:05:55.570Z,96183.00
2023-04-14T02:08:25.909Z,96186.00
2023-04-14T02:10:56.236Z,96183.38
2023-04-14T02:13:27.261Z,96174.00
2023-04-14T02:15:58.742Z,96179.03
2023-04-14T02:18:29.650Z,96176.38
2023-04-14T02:21:00.743Z,96174.06
2023-04-14T02:23:28.944Z,96176.06
2023-04-14T02:26:13.207Z,96179.22
2023-04-14T02:28:50.718Z,96169.00
2023-04-14T02:31:23.978Z,96165.47
2023-04-14T02:33:56.965Z,96172.69
2023-04-14T02:36:32.518Z,96169.00
2023-04-14T02:39:05.671Z,96169.44
2023-04-14T02:41:35.789Z,96167.34
2023-04-14T02:44:09.855Z,96172.28
2023-04-14T02:46:42.798Z,96175.56
2023-04-14T02:49:16.307Z,96168.06
2023-04-14T02:51:46.766Z,96165.41
2023-04-14T02:54:19.199Z,96163.25
2023-04-14T02:56:50.070Z,96162.56
2023-04-14T02:59:23.198Z,96157.81
2023-04-14T03:01:59.854Z,96157.44
2023-04-14T03:04:30.621Z,96157.94
2023-04-14T03:07:00.583Z,96160.78
2023-04-14T03:09:30.708Z,96161.34
2023-04-14T03:12:00.692Z,96158.66
2023-04-14T03:14:32.479Z,96155.13
2023-04-14T03:17:02.164Z,96151.72
2023-04-14T03:19:33.184Z,96151.59
2023-04-14T03:22:03.913Z,96150.38
2023-04-14T03:24:35.372Z,96151.13
2023-04-14T03:27:06.517Z,96151.88
2023-04-14T03:29:40.006Z,96140.97
2023-04-14T03:32:11.605Z,96149.72
2023-04-14T03:34:46.575Z,96164.00
2023-04-14T03:37:19.280Z,96161.34
2023-04-14T03:39:51.114Z,96166.03
2023-04-14T03:42:21.155Z,96156.22
2023-04-14T03:44:54.313Z,96154.88
2023-04-14T03:47:24.528Z,96159.09
2023-04-14T03:49:57.966Z,96143.94
2023-04-14T03:52:30.453Z,96147.16
2023-04-14T03:55:04.088Z,96144.44
2023-04-14T03:57:33.501Z,96138.59
2023-04-14T04:00:05.473Z,96145.78
2023-04-14T04:02:42.495Z,96140.41
2023-04-14T04:05:13.729Z,96144.16
2023-04-14T04:07:43.298Z,96138.66
2023-04-14T04:10:14.410Z,96132.41
2023-04-14T04:12:44.074Z,96135.44
2023-04-14T04:15:13.327Z,96131.34
2023-04-14T04:17:44.363Z,96134.03
2023-04-14T04:20:16.762Z,96131.22
2023-04-14T04:22:49.852Z,96137.09
2023-04-14T04:25:19.089Z,96131.63
2023-04-14T04:27:55.724Z,96124.03
2023-04-14T04:30:26.293Z,96136.44
2023-04-14T04:32:54.894Z,96133.03
2023-04-14T04:35:25.872Z,96135.69
2023-04-14T04:37:55.524Z,96132.84
2023-04-14T04:40:23.855Z,96140.38
2023-04-14T04:42:53.388Z,96136.81
2023-04-14T04:45:45.492Z,96141.19
2023-04-14T04:48:14.263Z,96140.09
2023-04-14T04:50:46.773Z,96133.28
2023-04-14T04:53:15.069Z,96128.88
2023-04-14T04:55:43.852Z,96127.56
2023-04-14T04:58:12.110Z,96135.31
2023-04-14T05:00:40.602Z,96136.00
2023-04-14T05:03:09.206Z,96128.16
2023-04-14T05:05:37.552Z,96134.69
2023-04-14T05:08:07.950Z,96139.75
2023-04-14T05:10:37.155Z,96141.06
2023-04-14T05:13:05.627Z,96142.06
2023-04-14T05:15:34.334Z,96144.66
2023-04-14T05:18:03.020Z,96143.56
2023-04-14T05:20:31.631Z,96139.66
2023-04-14T05:23:00.790Z,96143.28
2023-04-14T05:25:30.450Z,96149.94
2023-04-14T05:27:58.874Z,96143.31
2023-04-14T05:30:27.660Z,96144.16
2023-04-14T05:32:56.208Z,96145.22
2023-04-14T05:35:25.666Z,96149.50
2023-04-14T05:37:53.982Z,96143.38
2023-04-14T05:40:22.701Z,96143.13
2023-04-14T05:42:53.609Z,96140.28
2023-04-14T05:45:23.100Z,96142.75
2023-04-14T05:47:51.528Z,96135.53
2023-04-14T05:50:19.980Z,96136.06
2023-04-14T05:52:48.195Z,96146.09
2023-04-14T05:55:16.727Z,96135.25
2023-04-14T05:57:45.304Z,96130.75
2023-04-14T06:00:15.938Z,96131.00
2023-04-14T06:02:45.063Z,96123.41
2023-04-14T06:05:14.242Z,96131.16
2023-04-14T06:07:43.317Z,96126.41
2023-04-14T06:10:13.840Z,96124.88
2023-04-14T06:12:42.291Z,96127.44
2023-04-14T06:15:10.919Z,96125.78
2023-04-14T06:17:42.015Z,96124.16
2023-04-14T06:20:12.256Z,96125.41
2023-04-14T06:22:40.616Z,96121.38
2023-04-14T06:25:11.231Z,96122.22
2023-04-14T06:27:39.919Z,96117.16
2023-04-14T06:30:10.823Z,96118.22
2023-04-14T06:32:40.906Z,96118.47
2023-04-14T06:35:16.451Z,96107.94
2023-04-14T06:37:51.767Z,96102.06
2023-04-14T06:40:20.507Z,96103.59
2023-04-14T06:42:48.554Z,96090.34
2023-04-14T06:45:17.270Z,96097.28
2023-04-14T06:47:47.277Z,96095.19
2023-04-14T06:50:15.607Z,96091.03
2023-04-14T06:53:09.547Z,96094.91
2023-04-14T06:55:42.328Z,96091.63
2023-04-14T06:58:10.442Z,96089.97
2023-04-14T07:00:38.942Z,96094.94
2023-04-14T07:03:29.087Z,96096.13
2023-04-14T07:06:04.016Z,96092.88
2023-04-14T07:08:34.881Z,96088.31
2023-04-14T07:11:04.409Z,96093.50
2023-04-14T07:13:33.800Z,96091.28
2023-04-14T07:16:02.401Z,96089.03
2023-04-14T07:18:33.071Z,96084.34
2023-04-14T07:21:01.689Z,96083.66
2023-04-14T07:23:30.152Z,96082.19
2023-04-14T07:26:00.035Z,96085.31
2023-04-14T07:28:29.556Z,96079.69
2023-04-14T07:30:57.955Z,96072.03
2023-04-14T07:33:27.178Z,96069.56
2023-04-14T07:36:02.083Z,96077.16
2023-04-14T07:38:32.461Z,96070.84
2023-04-14T07:41:01.384Z,96067.19
2023-04-14T07:43:35.139Z,96064.41
2023-04-14T07:46:05.753Z,96056.66
2023-04-14T07:48:35.344Z,96067.81
2023-04-14T07:51:06.918Z,96068.19
2023-04-14T07:53:40.734Z,96065.66
2023-04-14T07:56:09.680Z,96070.41
2023-04-14T07:58:38.265Z,96064.66
2023-04-14T08:01:06.568Z,96063.66
2023-04-14T08:03:36.597Z,96067.78
2023-04-14T08:06:08.506Z,96068.97
2023-04-14T08:08:37.293Z,96073.56
2023-04-14T08:11:07.313Z,96070.56
2023-04-14T08:13:35.778Z,96072.63
2023-04-14T08:16:04.704Z,96079.81
2023-04-14T08:18:32.956Z,96070.47
2023-04-14T08:21:01.440Z,96063.00
2023-04-14T08:23:31.711Z,96068.25
2023-04-14T08:26:00.237Z,96075.41
2023-04-14T08:28:31.277Z,96067.72
2023-04-14T08:31:00.148Z,96074.16
2023-04-14T08:33:28.804Z,96078.50
2023-04-14T08:36:00.412Z,96066.19
2023-04-14T08:38:29.417Z,96072.84
2023-04-14T08:41:02.090Z,96059.94
2023-04-14T08:43:31.117Z,96068.88
2023-04-14T08:46:03.195Z,96072.88
2023-04-14T08:48:33.144Z,96076.09
2023-04-14T08:51:07.890Z,96071.97
2023-04-14T08:53:43.830Z,96063.16
2023-04-14T08:56:17.406Z,96057.22
2023-04-14T08:58:47.437Z,96064.53
2023-04-14T09:01:16.792Z,96063.03
2023-04-14T09:03:46.046Z,96072.19
2023-04-14T09:06:15.323Z,96056.28
2023-04-14T09:08:44.648Z,96060.97
2023-04-14T09:11:17.052Z,96062.06
2023-04-14T09:13:46.228Z,96062.06
2023-04-14T09:16:15.205Z,96059.91
2023-04-14T09:18:43.803Z,96057.69
2023-04-14T09:21:50.569Z,96059.97
2023-04-14T09:24:07.305Z,96061.50
2023-04-14T09:26:37.816Z,96053.03
2023-04-14T09:29:06.226Z,96057.19
2023-04-14T09:31:34.994Z,96057.88
2023-04-14T09:34:03.976Z,96053.91
2023-04-14T09:36:32.776Z,96055.53
2023-04-14T09:39:01.068Z,96048.47
2023-04-14T09:41:29.519Z,96049.97
2023-04-14T09:44:08.337Z,96057.19
2023-04-14T09:46:36.768Z,96056.38
2023-04-14T09:49:07.209Z,96050.81
2023-04-14T09:51:36.066Z,96054.47
2023-04-14T09:54:07.049Z,96050.41
2023-04-14T09:56:36.774Z,96058.00
2023-04-14T09:59:07.741Z,96050.25
2023-04-14T10:01:36.966Z,96049.28
2023-04-14T10:04:05.222Z,96053.66
2023-04-14T10:06:33.978Z,96049.47
2023-04-14T10:09:04.198Z,96056.31
2023-04-14T10:11:33.777Z,96059.84
2023-04-14T10:14:04.203Z,96052.34
2023-04-14T10:16:35.006Z,96049.34
2023-04-14T10:19:04.788Z,96050.84
2023-04-14T10:21:34.242Z,96049.75
2023-04-14T10:24:03.447Z,96054.13
2023-04-14T10:26:32.513Z,96048.13
2023-04-14T10:29:02.599Z,96046.63
2023-04-14T10:31:36.518Z,96049.59
2023-04-14T10:34:11.150Z,96046.75
2023-04-14T10:36:50.271Z,96046.88
2023-04-14T10:39:25.316Z,96041.16
2023-04-14T10:41:58.955Z,96037.06
2023-04-14T10:44:35.399Z,96034.06
2023-04-14T10:47:08.884Z,96034.06
2023-04-14T10:49:41.420Z,96027.78
2023-04-14T10:52:36.133Z,96028.72
2023-04-14T10:55:12.331Z,96025.47
2023-04-14T10:57:43.391Z,96020.97
2023-04-14T11:00:25.383Z,96020.00
2023-04-14T11:03:00.993Z,96021.06
2023-04-14T11:05:29.243Z,96014.53
2023-04-14T11:08:02.454Z,96005.53
2023-04-14T11:10:34.450Z,96009.03
2023-04-14T11:13:04.557Z,95998.41
2023-04-14T11:15:49.747Z,95996.38
2023-04-14T11:18:22.211Z,95993.41
2023-04-14T11:20:53.255Z,95981.66
2023-04-14T11:23:28.470Z,95987.97
2023-04-14T11:25:58.203Z,95983.59
2023-04-14T11:28:30.441Z,95979.78
2023-04-14T11:30:59.841Z,95973.25
2023-04-14T11:33:34.066Z,95978.00
2023-04-14T11:36:03.528Z,95979.50
2023-04-14T11:38:32.488Z,95981.00
2023-04-14T11:41:02.922Z,95979.50
2023-04-14T11:43:32.057Z,95982.78
2023-04-14T11:46:02.235Z,95972.44
2023-04-14T11:48:32.406Z,95984.00
2023-04-14T11:51:03.869Z,95983.31
2023-04-14T11:53:33.253Z,95979.09
2023-04-14T11:56:01.667Z,95978.69
2023-04-14T11:58:30.412Z,95978.56
2023-04-14T12:00:58.951Z,95982.50
2023-04-14T12:03:29.363Z,95984.41
2023-04-14T12:06:01.704Z,95981.13
2023-04-14T12:08:31.810Z,95985.91
2023-04-14T12:11:02.646Z,95981.38
2023-04-14T12:13:31.200Z,95975.00
2023-04-14T12:16:00.417Z,95974.31
2023-04-14T12:18:29.879Z,95975.78
2023-04-14T12:21:06.349Z,95974.69
2023-04-14T12:23:37.803Z,95964.19
2023-04-14T12:26:13.648Z,95971.28
2023-04-14T12:28:42.825Z,95977.31
2023-04-14T12:31:12.106Z,95976.59
2023-04-14T12:33:41.119Z,95975.09
2023-04-14T12:36:14.263Z,95969.38
2023-04-14T12:38:42.953Z,95963.50
2023-04-14T12:41:12.183Z,95962.69
2023-04-14T12:43:41.871Z,95965.25
2023-04-14T12:46:10.288Z,95956.94
2023-04-14T12:48:44.479Z,95960.50
2023-04-14T12:51:16.212Z,95954.34
2023-04-14T12:53:45.493Z,95951.97
2023-04-14T12:56:16.096Z,95946.53
2023-04-14T12:58:47.015Z,95946.09
2023-04-14T13:01:17.089Z,95943.78
2023-04-14T13:03:47.705Z,95942.16
2023-04-14T13:06:18.890Z,95948.56
2023-04-14T13:08:48.775Z,95940.28
2023-04-14T13:11:18.906Z,95944.66
2023-04-14T13:13:47.906Z,95939.22
2023-04-14T13:16:19.497Z,95946.91
2023-04-14T13:18:50.185Z,95939.53
2023-04-14T13:21:19.786Z,95935.94
2023-04-14T13:23:48.233Z,95939.88
2023-04-14T13:26:16.795Z,95937.69
2023-04-14T13:28:45.052Z,95939.59
2023-04-14T13:31:18.507Z,95943.16
2023-04-14T13:33:46.948Z,95948.44
2023-04-14T13:36:15.751Z,95943.28
2023-04-14T13:38:45.364Z,95941.63
2023-04-14T13:41:15.461Z,95939.59
2023-04-14T13:43:43.974Z,95944.88
2023-04-14T13:46:12.808Z,95941.97
2023-04-14T13:48:41.595Z,95947.47
2023-04-14T13:51:09.826Z,95937.59
2023-04-14T13:53:40.227Z,95946.59
2023-04-14T13:56:10.676Z,95951.28
2023-04-14T13:58:39.190Z,95948.44
2023-04-14T14:01:11.906Z,95949.94
2023-04-14T14:03:42.512Z,95948.84
2023-04-14T14:06:11.233Z,95947.59
2023-04-14T14:08:41.257Z,95945.69
2023-04-14T14:11:11.944Z,95943.63
2023-04-14T14:13:40.956Z,95942.03
2023-04-14T14:16:10.685Z,95940.09
2023-04-14T14:18:39.002Z,95951.84
2023-04-14T14:21:07.278Z,95944.50
2023-04-14T14:23:35.855Z,95946.38
2023-04-14T14:26:04.289Z,95942.03
2023-04-14T14:28:34.137Z,95942.16
2023-04-14T14:31:03.378Z,95944.75
2023-04-14T14:33:32.769Z,95940.50
2023-04-14T14:36:01.343Z,95945.28
2023-04-14T14:38:29.942Z,95950.09
2023-04-14T14:40:58.268Z,95944.38
2023-04-14T14:43:26.566Z,95952.25
2023-04-14T14:45:56.310Z,95947.94
2023-04-14T14:48:25.534Z,95960.44
2023-04-14T14:50:53.639Z,95950.06
2023-04-14T14:53:21.776Z,95952.16
2023-04-14T14:55:50.216Z,95956.25
2023-04-14T14:58:18.447Z,95953.25
2023-04-14T15:00:46.901Z,95955.41
2023-04-14T15:03:17.225Z,95954.03
2023-04-14T15:05:46.568Z,95950.88
2023-04-14T15:08:15.080Z,95955.63
2023-04-14T15:10:43.273Z,95948.94
2023-04-14T15:13:12.576Z,95952.22
2023-04-14T15:15:40.990Z,95952.28
2023-04-14T15:18:10.815Z,95955.16
2023-04-14T15:20:42.881Z,95959.41
2023-04-14T15:23:11.533Z,95951.53
2023-04-14T15:25:40.158Z,95952.03
2023-04-14T15:28:08.426Z,95952.84
2023-04-14T15:30:36.558Z,95953.16
2023-04-14T15:33:05.333Z,95956.03
2023-04-14T15:35:36.915Z,95953.31
2023-04-14T15:38:07.528Z,95952.94
2023-04-14T15:40:36.442Z,95955.25
2023-04-14T15:43:04.738Z,95965.63
2023-04-14T15:45:43.250Z,95958.94
2023-04-14T15:48:11.778Z,95959.75
2023-04-14T15:50:44.920Z,95964.72
2023-04-14T15:53:15.661Z,95958.66
2023-04-14T15:55:44.578Z,95956.91
2023-04-14T15:58:12.859Z,95958.81
2023-04-14T16:01:07.853Z,95965.63
2023-04-14T16:03:36.975Z,95957.19
2023-04-14T16:06:07.253Z,95957.34
2023-04-14T16:08:37.382Z,95952.69
2023-04-14T16:11:05.775Z,95955.03
2023-04-14T16:13:34.068Z,95952.97
2023-04-14T16:16:02.848Z,95952.03
2023-04-14T16:18:32.563Z,95951.91
2023-04-14T16:21:01.257Z,95948.78
2023-04-14T16:23:29.758Z,95953.69
2023-04-14T16:25:59.996Z,95969.53
2023-04-14T16:28:28.469Z,95951.38
2023-04-14T16:31:00.429Z,95951.50
2023-04-14T16:33:32.067Z,95953.81
2023-04-14T16:36:04.219Z,95955.06
2023-04-14T16:38:32.609Z,95954.09
2023-04-14T16:41:03.539Z,95955.19
2023-04-14T16:43:32.185Z,95950.16
2023-04-14T16:46:04.411Z,95952.19
2023-04-14T16:48:33.598Z,95945.50
2023-04-14T16:51:05.838Z,95935.53
2023-04-14T16:53:35.135Z,95943.03
2023-04-14T16:56:06.380Z,95939.91
2023-04-14T16:58:34.933Z,95941.16
2023-04-14T17:01:03.452Z,95942.25
2023-04-14T17:03:32.050Z,95934.88
2023-04-14T17:06:01.191Z,95939.13
2023-04-14T17:08:29.669Z,95938.44
2023-04-14T17:10:58.202Z,95936.38
2023-04-14T17:13:29.071Z,95939.94
2023-04-14T17:16:07.671Z,95935.97
2023-04-14T17:18:38.708Z,95926.19
2023-04-14T17:21:07.781Z,95928.63
2023-04-14T17:24:05.116Z,95944.47
2023-04-14T17:26:33.993Z,95947.31
2023-04-14T17:29:04.364Z,95948.13
2023-04-14T17:31:35.429Z,95947.59
2023-04-14T17:34:10.881Z,95962.19
2023-04-14T17:36:41.003Z,95957.69
2023-04-14T17:39:10.832Z,95963.28
2023-04-14T17:41:39.448Z,95965.75
2023-04-14T17:44:09.143Z,95968.19
2023-04-14T17:46:37.669Z,95969.28
2023-04-14T17:49:06.126Z,95969.41
2023-04-14T17:51:34.683Z,95971.59
2023-04-14T17:54:04.749Z,95965.75
2023-04-14T17:56:33.317Z,95963.28
2023-04-14T17:59:02.080Z,95958.50
2023-04-14T18:01:32.161Z,95948.41
2023-04-14T18:04:01.656Z,95955.91
2023-04-14T18:06:34.572Z,95944.03
2023-04-14T18:09:03.100Z,95938.84
2023-04-14T18:11:31.920Z,95926.31
2023-04-14T18:14:00.708Z,95940.09
2023-04-14T18:16:30.155Z,95940.91
2023-04-14T18:19:00.614Z,95944.31
2023-04-14T18:21:29.742Z,95951.53
2023-04-14T18:26:29.026Z,95944.56
2023-04-14T18:28:57.420Z,95945.53
2023-04-14T18:31:25.773Z,95946.22
2023-04-14T18:33:54.035Z,95943.22
2023-04-14T18:36:24.311Z,95952.47
2023-04-14T18:38:52.764Z,95944.72
2023-04-14T18:41:21.177Z,95946.47
2023-04-14T18:43:49.864Z,95948.53
2023-04-14T18:46:18.216Z,95955.47
2023-04-14T18:48:46.365Z,95952.19
2023-04-14T18:51:16.255Z,95946.22
2023-04-14T18:53:46.952Z,95945.94
2023-04-14T18:56:15.547Z,95943.47
2023-04-14T18:58:43.931Z,95936.38
2023-04-14T19:01:12.633Z,95935.03
2023-04-14T19:03:41.274Z,95935.84
2023-04-14T19:06:10.008Z,95939.69
2023-04-14T19:08:38.445Z,95937.91
2023-04-14T19:11:08.665Z,95935.31
2023-04-14T19:13:39.274Z,95933.53
2023-04-14T19:16:17.824Z,95936.41
2023-04-14T19:18:47.744Z,95927.94
2023-04-14T19:21:16.310Z,95931.22
2023-04-14T19:23:45.814Z,95929.84
2023-04-14T19:26:18.049Z,95928.63
2023-04-14T19:28:46.650Z,95923.84
2023-04-14T19:31:15.995Z,95933.38
2023-04-14T19:33:45.472Z,95929.31
2023-04-14T19:36:14.434Z,95929.03
2023-04-14T19:38:42.923Z,95929.72
2023-04-14T19:41:11.179Z,95922.09
2023-04-14T19:43:42.378Z,95923.16
2023-04-14T19:46:13.334Z,95925.75
2023-04-14T19:48:41.745Z,95926.56
2023-04-14T19:51:10.146Z,95912.16
2023-04-14T19:53:38.724Z,95917.97
2023-04-14T19:56:07.349Z,95914.88
2023-04-14T19:58:36.477Z,95909.56
2023-04-14T20:01:06.779Z,95918.16
2023-04-14T20:03:35.249Z,95915.56
2023-04-14T20:06:04.445Z,95912.28
2023-04-14T20:08:33.279Z,95895.09
2023-04-14T20:11:01.690Z,95896.88
2023-04-14T20:13:32.280Z,95893.59
2023-04-14T20:16:03.277Z,95893.47
2023-04-14T20:18:34.933Z,95891.03
2023-04-14T20:21:05.040Z,95890.34
2023-04-14T20:23:33.339Z,95897.16
2023-04-14T20:26:03.553Z,95898.09
2023-04-14T20:28:31.978Z,95890.34
2023-04-14T20:31:00.769Z,95889.91
2023-04-14T20:33:29.589Z,95894.69
2023-04-14T20:36:01.959Z,95887.19
2023-04-14T20:38:30.612Z,95878.59
2023-04-14T20:40:59.367Z,95881.88
2023-04-14T20:43:34.028Z,95883.78
2023-04-14T20:46:04.269Z,95881.50
2023-04-14T20:48:33.029Z,95877.13
2023-04-14T20:51:04.254Z,95878.09
2023-04-14T20:53:32.697Z,95878.09
2023-04-14T20:56:01.171Z,95872.09
2023-04-14T20:58:30.021Z,95879.03
2023-04-14T21:00:58.516Z,95875.34
2023-04-14T21:03:27.923Z,95872.78
2023-04-14T21:05:56.485Z,95878.59
2023-04-14T21:08:27.386Z,95876.00
2023-04-14T21:11:15.869Z,95873.16
2023-04-14T21:15:44.117Z,95875.88
2023-04-14T21:16:32.814Z,95869.06
2023-04-14T21:19:02.576Z,95866.47
2023-04-14T21:21:40.624Z,95876.97
2023-04-14T21:24:10.596Z,95866.34
2023-04-14T21:26:38.695Z,95873.44
2023-04-14T21:29:06.863Z,95862.25
2023-04-14T21:31:35.824Z,95874.25
2023-04-14T21:34:04.566Z,95870.19
2023-04-14T21:36:33.248Z,95865.66
2023-04-14T21:39:01.757Z,95861.16
2023-04-14T21:41:32.803Z,95865.53
2023-04-14T21:44:01.728Z,95873.44
2023-04-14T21:46:30.671Z,95862.13
2023-04-14T21:48:59.284Z,95865.53
2023-04-14T21:51:27.607Z,95861.28
2023-04-14T21:53:55.997Z,95863.06
2023-04-14T21:56:24.705Z,95858.72
2023-04-14T21:58:54.580Z,95851.88
2023-04-14T22:01:23.781Z,95853.41
2023-04-14T22:03:52.372Z,95850.13
2023-04-14T22:06:21.660Z,95846.19
2023-04-14T22:08:50.294Z,95845.25
2023-04-14T22:11:20.790Z,95847.00
2023-04-14T22:13:50.479Z,95847.97
2023-04-14T22:16:20.232Z,95844.69
2023-04-14T22:18:49.375Z,95854.09
2023-04-14T22:21:18.084Z,95856.56
2023-04-14T22:23:46.810Z,95851.25
2023-04-14T22:26:15.465Z,95854.22
2023-04-14T22:28:43.595Z,95854.91
2023-04-14T22:31:11.812Z,95853.97
2023-04-14T22:33:41.977Z,95850.25
2023-04-14T22:36:10.270Z,95847.00
2023-04-14T22:38:38.636Z,95854.09
2023-04-14T22:41:07.906Z,95852.06
2023-04-14T22:43:36.325Z,95847.28
2023-04-14T22:46:04.711Z,95855.72
2023-04-14T22:48:33.372Z,95862.00
2023-04-14T22:51:03.239Z,95859.97
2023-04-14T22:53:31.526Z,95859.28
2023-04-14T22:55:59.941Z,95858.19
2023-04-14T22:58:32.083Z,95862.41
2023-04-14T23:01:04.498Z,95856.81
2023-04-14T23:03:38.005Z,95862.53
2023-04-14T23:06:08.325Z,95861.19
2023-04-14T23:08:36.674Z,95855.03
2023-04-14T23:11:05.263Z,95859.28
2023-04-14T23:13:33.524Z,95856.25
2023-04-14T23:16:01.748Z,95856.69
2023-04-14T23:18:30.004Z,95846.19
2023-04-14T23:20:58.860Z,95847.00
2023-04-14T23:23:28.906Z,95851.25
2023-04-14T23:25:57.770Z,95847.00
2023-04-14T23:28:26.111Z,95853.97
2023-04-14T23:30:54.261Z,95853.16
2023-04-14T23:33:22.647Z,95847.16
2023-04-14T23:35:51.172Z,95846.19
2023-04-14T23:38:19.604Z,95847.28
2023-04-14T23:40:49.367Z,95840.47
2023-04-14T23:43:17.862Z,95845.38
2023-04-14T23:45:46.344Z,95839.50
2023-04-14T23:48:14.472Z,95834.47
2023-04-14T23:50:58.682Z,95841.16
2023-04-14T23:53:30.527Z,95832.69
2023-04-14T23:56:00.375Z,95726.34
2023-04-14T23:58:30.213Z,95602.63
